Time;durP1;ratioP1;P1;durP2;ratioP2;P2;SDS_P1;SDS_P2;PMS_P1;PMS_P2;Temp;Humidity;BMP_temperature;BMP_pressure;BME280_temperature;BME280_humidity;BME280_pressure;Samples;Min_cycle;Max_cycle;Signal;HPM_P1;HPM_P2
2022/05/23 00:01:31;;;;;;;4.70;2.70;;;;;;;;;;5036732;28;20417;-81
2022/05/23 00:03:57;;;;;;;4.23;1.80;;;;;;;;;;5037097;28;20403;-81
2022/05/23 00:06:23;;;;;;;3.53;2.30;;;;;;;;;;5035921;28;20430;-81
2022/05/23 00:08:50;;;;;;;3.33;1.83;;;;;;;;;;5038189;28;20953;-81
2022/05/23 00:11:16;;;;;;;6.90;2.47;;;;;;;;;;5037833;28;20477;-82
2022/05/23 00:13:43;;;;;;;3.53;1.90;;;;;;;;;;5039164;28;20822;-82
2022/05/23 00:16:09;;;;;;;3.23;2.00;;;;;;;;;;5039749;28;20420;-81
2022/05/23 00:18:35;;;;;;;5.30;2.40;;;;;;;;;;5039764;28;20427;-81
2022/05/23 00:21:01;;;;;;;4.47;2.40;;;;;;;;;;5039186;28;20407;-82
2022/05/23 00:23:27;;;;;;;4.03;2.03;;;;;;;;;;5039756;28;20410;-82
2022/05/23 00:25:54;;;;;;;5.30;2.93;;;;;;;;;;5040004;28;20415;-82
2022/05/23 00:28:20;;;;;;;4.57;1.90;;;;;;;;;;5038025;28;20938;-80
2022/05/23 00:30:46;;;;;;;3.10;1.80;;;;;;;;;;5038377;28;20399;-82
2022/05/23 00:35:57;;;;;;;3.60;2.37;;;;;;;;;;5038407;28;20429;-82
2022/05/23 00:38:23;;;;;;;5.53;2.00;;;;;;;;;;5041763;28;20431;-80
2022/05/23 00:43:13;;;;;;;3.70;1.93;;;;;;;;;;5049630;28;20386;-81
2022/05/23 00:43:39;;;;;;;6.33;2.70;;;;;;;;;;5041694;28;20426;-82
2022/05/23 00:46:05;;;;;;;3.57;2.70;;;;;;;;;;5041604;28;20747;-82
2022/05/23 00:48:32;;;;;;;3.67;2.30;;;;;;;;;;5041402;28;20494;-82
2022/05/23 00:50:59;;;;;;;3.50;1.90;;;;;;;;;;5024003;28;20418;-83
2022/05/23 00:53:27;;;;;;;2.17;1.63;;;;;;;;;;5041269;28;20394;-82
2022/05/23 00:55:53;;;;;;;3.03;2.23;;;;;;;;;;5041258;28;20444;-82
2022/05/23 00:58:22;;;;;;;3.83;2.20;;;;;;;;;;5041029;28;20422;-82
2022/05/23 01:00:48;;;;;;;6.33;2.60;;;;;;;;;;5041983;28;20765;-82
2022/05/23 01:03:16;;;;;;;8.63;2.13;;;;;;;;;;5043287;28;20425;-82
2022/05/23 01:05:42;;;;;;;6.17;2.33;;;;;;;;;;5041094;28;20901;-82
2022/05/23 01:08:08;;;;;;;4.27;2.20;;;;;;;;;;5042220;28;20482;-82
2022/05/23 01:10:36;;;;;;;3.53;2.07;;;;;;;;;;5051137;28;20855;-82
2022/05/23 01:13:02;;;;;;;3.53;2.30;;;;;;;;;;5024191;28;20506;-82
2022/05/23 01:15:29;;;;;;;3.43;2.53;;;;;;;;;;5040824;28;20458;-81
2022/05/23 01:17:56;;;;;;;4.10;2.03;;;;;;;;;;5041201;28;20406;-82
2022/05/23 01:20:23;;;;;;;2.70;2.20;;;;;;;;;;5041074;28;20399;-83
2022/05/23 01:22:49;;;;;;;2.97;2.13;;;;;;;;;;5040719;28;20399;-82
2022/05/23 01:25:18;;;;;;;3.77;2.07;;;;;;;;;;5041376;28;20399;-82
2022/05/23 01:27:44;;;;;;;5.27;2.33;;;;;;;;;;5040507;28;20407;-82
2022/05/23 01:30:11;;;;;;;3.47;2.20;;;;;;;;;;5041228;28;20463;-82
2022/05/23 01:32:38;;;;;;;4.60;2.50;;;;;;;;;;5040248;28;20411;-82
2022/05/23 01:35:05;;;;;;;3.23;2.03;;;;;;;;;;5041032;28;20457;-82
2022/05/23 01:37:31;;;;;;;2.63;1.90;;;;;;;;;;5041353;28;20521;-82
2022/05/23 01:39:57;;;;;;;4.10;2.33;;;;;;;;;;5041138;28;20446;-82
2022/05/23 01:42:23;;;;;;;2.80;1.73;;;;;;;;;;5038167;28;20426;-82
2022/05/23 01:44:49;;;;;;;4.70;2.40;;;;;;;;;;5040496;28;20398;-82
2022/05/23 01:47:17;;;;;;;3.17;2.33;;;;;;;;;;5040245;28;20902;-82
2022/05/23 01:49:43;;;;;;;4.70;2.10;;;;;;;;;;5039748;28;20437;-82
2022/05/23 01:52:10;;;;;;;5.43;2.03;;;;;;;;;;5044653;28;20410;-82
2022/05/23 01:54:37;;;;;;;4.60;2.67;;;;;;;;;;5044668;28;20469;-82
2022/05/23 01:57:03;;;;;;;4.43;2.30;;;;;;;;;;5044200;28;20456;-82
2022/05/23 02:02:14;;;;;;;7.67;2.33;;;;;;;;;;5044348;28;20381;-82
2022/05/23 02:04:40;;;;;;;3.73;1.97;;;;;;;;;;5044560;28;20398;-82
2022/05/23 02:07:06;;;;;;;5.63;2.47;;;;;;;;;;5044297;28;20398;-81
2022/05/23 02:09:33;;;;;;;5.93;2.67;;;;;;;;;;5043519;28;20503;-82
2022/05/23 02:11:59;;;;;;;3.73;2.27;;;;;;;;;;5043234;28;20398;-82
2022/05/23 02:14:25;;;;;;;3.53;2.00;;;;;;;;;;5044066;28;20453;-82
2022/05/23 02:16:51;;;;;;;3.43;1.97;;;;;;;;;;5042890;28;20426;-82
2022/05/23 02:19:17;;;;;;;5.70;2.60;;;;;;;;;;5043914;28;20484;-82
2022/05/23 02:21:43;;;;;;;2.47;1.80;;;;;;;;;;5043939;28;20953;-82
2022/05/23 02:24:10;;;;;;;3.23;1.90;;;;;;;;;;5042142;28;20421;-82
2022/05/23 02:26:36;;;;;;;4.00;2.57;;;;;;;;;;5042234;28;20413;-82
2022/05/23 02:29:02;;;;;;;3.63;2.30;;;;;;;;;;5024467;28;20458;-82
2022/05/23 02:31:29;;;;;;;5.03;2.23;;;;;;;;;;5043732;28;20410;-82
2022/05/23 02:33:55;;;;;;;3.00;2.20;;;;;;;;;;5042387;28;20938;-82
2022/05/23 02:36:21;;;;;;;2.63;1.90;;;;;;;;;;5042198;28;20462;-82
2022/05/23 02:38:47;;;;;;;3.07;2.17;;;;;;;;;;5042583;28;20518;-82
2022/05/23 02:41:13;;;;;;;2.93;1.77;;;;;;;;;;5042671;28;20410;-80
2022/05/23 02:43:39;;;;;;;4.37;2.73;;;;;;;;;;5043349;28;20414;-82
2022/05/23 02:46:05;;;;;;;3.30;2.27;;;;;;;;;;5043224;28;20754;-82
2022/05/23 02:48:31;;;;;;;5.03;2.23;;;;;;;;;;5041761;28;20418;-82
2022/05/23 02:50:57;;;;;;;4.80;2.00;;;;;;;;;;5046701;28;20413;-81
2022/05/23 02:53:23;;;;;;;6.63;2.67;;;;;;;;;;5050706;28;20398;-82
2022/05/23 02:55:49;;;;;;;4.73;2.80;;;;;;;;;;5026139;28;20462;-82
2022/05/23 02:58:15;;;;;;;6.17;2.30;;;;;;;;;;5043773;28;20949;-82
2022/05/23 03:00:42;;;;;;;4.53;2.20;;;;;;;;;;5043855;28;20490;-82
2022/05/23 03:03:09;;;;;;;4.23;2.63;;;;;;;;;;5043371;28;20769;-82
2022/05/23 03:05:40;;;;;;;4.20;2.93;;;;;;;;;;5044037;28;20474;-82
2022/05/23 03:08:07;;;;;;;3.00;2.17;;;;;;;;;;5043693;28;20430;-82
2022/05/23 03:10:33;;;;;;;2.93;2.30;;;;;;;;;;5026048;28;20474;-82
2022/05/23 03:12:59;;;;;;;4.87;2.33;;;;;;;;;;5043176;28;20415;-82
2022/05/23 03:15:27;;;;;;;6.23;2.50;;;;;;;;;;5043360;28;20469;-82
2022/05/23 03:17:53;;;;;;;4.00;2.43;;;;;;;;;;5041047;28;20435;-82
2022/05/23 03:20:19;;;;;;;6.20;2.63;;;;;;;;;;5027138;28;20446;-82
2022/05/23 03:28:15;;;;;;;4.03;2.13;;;;;;;;;;5023502;28;20855;-82
2022/05/23 03:30:41;;;;;;;3.97;2.87;;;;;;;;;;5022782;28;20399;-82
2022/05/23 03:33:07;;;;;;;2.93;2.47;;;;;;;;;;5022939;28;20411;-82
2022/05/23 03:35:33;;;;;;;3.37;2.37;;;;;;;;;;5005779;28;20470;-82
2022/05/23 03:38:00;;;;;;;6.50;3.13;;;;;;;;;;5023652;28;20453;-82
2022/05/23 03:40:26;;;;;;;4.00;2.63;;;;;;;;;;5017726;28;20392;-81
2022/05/23 03:42:53;;;;;;;3.70;2.43;;;;;;;;;;5017769;28;20407;-80
2022/05/23 03:45:19;;;;;;;4.83;2.50;;;;;;;;;;5015523;28;20824;-81
2022/05/23 03:47:46;;;;;;;3.87;2.40;;;;;;;;;;5017031;28;20839;-81
2022/05/23 03:50:12;;;;;;;2.90;2.20;;;;;;;;;;5017353;28;20487;-82
2022/05/23 03:52:38;;;;;;;4.33;2.30;;;;;;;;;;5021543;28;20418;-82
2022/05/23 03:55:05;;;;;;;5.90;2.90;;;;;;;;;;5021471;28;20447;-82
2022/05/23 03:57:31;;;;;;;6.43;2.80;;;;;;;;;;5017702;28;20483;-82
2022/05/23 03:59:57;;;;;;;2.70;2.30;;;;;;;;;;5018168;28;20824;-82
2022/05/23 04:02:23;;;;;;;4.97;2.80;;;;;;;;;;5017731;28;20892;-82
2022/05/23 04:04:49;;;;;;;6.13;2.63;;;;;;;;;;5019384;28;20404;-81
2022/05/23 04:07:16;;;;;;;3.33;2.60;;;;;;;;;;5018630;28;20410;-81
2022/05/23 04:09:42;;;;;;;3.70;2.20;;;;;;;;;;5017171;28;20455;-82
2022/05/23 04:12:08;;;;;;;3.33;2.27;;;;;;;;;;5016422;28;20415;-82
2022/05/23 04:14:34;;;;;;;6.43;2.97;;;;;;;;;;5020501;28;20453;-82
2022/05/23 04:17:00;;;;;;;3.73;2.37;;;;;;;;;;5020613;28;20509;-82
2022/05/23 04:19:27;;;;;;;3.73;2.50;;;;;;;;;;5020762;28;20796;-82
2022/05/23 04:21:53;;;;;;;3.97;2.80;;;;;;;;;;5019852;28;20422;-82
2022/05/23 04:24:20;;;;;;;4.70;2.37;;;;;;;;;;5019355;28;20439;-82
2022/05/23 04:26:51;;;;;;;6.50;2.70;;;;;;;;;;5020304;28;20413;-81
2022/05/23 04:29:17;;;;;;;5.20;2.67;;;;;;;;;;5002507;28;20427;-82
2022/05/23 04:31:43;;;;;;;4.93;2.97;;;;;;;;;;5022232;28;20407;-82
2022/05/23 04:36:54;;;;;;;4.83;2.80;;;;;;;;;;5019733;28;20422;-82
2022/05/23 04:39:21;;;;;;;4.10;2.63;;;;;;;;;;5058553;23;21005;-85
2022/05/23 04:41:47;;;;;;;7.13;3.20;;;;;;;;;;5063346;28;20877;-86
2022/05/23 04:44:13;;;;;;;4.43;3.10;;;;;;;;;;5065207;28;20394;-85
2022/05/23 04:49:41;;;;;;;3.50;3.20;;;;;;;;;;5065858;28;20465;-87
2022/05/23 04:52:30;;;;;;;5.63;2.60;;;;;;;;;;4994836;28;20404;-85
2022/05/23 04:54:56;;;;;;;4.70;2.90;;;;;;;;;;4995815;28;20551;-84
2022/05/23 04:57:22;;;;;;;3.57;2.77;;;;;;;;;;5025594;28;20414;-85
2022/05/23 04:59:48;;;;;;;6.53;2.97;;;;;;;;;;5059591;28;20566;-84
2022/05/23 05:02:14;;;;;;;3.10;2.80;;;;;;;;;;5042295;28;20412;-85
2022/05/23 05:04:40;;;;;;;5.00;3.50;;;;;;;;;;5059771;28;20406;-86
2022/05/23 05:07:06;;;;;;;6.80;3.57;;;;;;;;;;5060632;28;20770;-84
2022/05/23 05:09:33;;;;;;;3.43;2.73;;;;;;;;;;5060824;28;20422;-87
2022/05/23 05:11:59;;;;;;;5.83;3.50;;;;;;;;;;5062152;28;20422;-86
2022/05/23 05:14:26;;;;;;;6.10;3.10;;;;;;;;;;5060932;28;20532;-84
2022/05/23 05:16:52;;;;;;;4.33;3.17;;;;;;;;;;5061800;28;20559;-85
2022/05/23 05:19:19;;;;;;;4.80;3.57;;;;;;;;;;5040751;28;20468;-84
2022/05/23 05:21:45;;;;;;;5.60;2.90;;;;;;;;;;5056870;28;20406;-84
2022/05/23 05:24:11;;;;;;;4.30;3.17;;;;;;;;;;5055687;28;20409;-84
2022/05/23 05:26:38;;;;;;;4.73;3.30;;;;;;;;;;5056871;28;20794;-84
2022/05/23 05:29:04;;;;;;;5.73;3.30;;;;;;;;;;5059800;28;20567;-84
2022/05/23 05:31:33;;;;;;;6.60;3.20;;;;;;;;;;5062166;28;20751;-86
2022/05/23 05:34:02;;;;;;;5.20;3.10;;;;;;;;;;5045905;28;20457;-85
2022/05/23 05:36:32;;;;;;;3.03;2.73;;;;;;;;;;5071575;28;20412;-84
2022/05/23 05:39:01;;;;;;;6.77;3.20;;;;;;;;;;5071505;28;20433;-87
2022/05/23 05:41:29;;;;;;;5.33;3.03;;;;;;;;;;5066161;28;20747;-86
2022/05/23 05:43:58;;;;;;;8.53;3.50;;;;;;;;;;5065935;28;20498;-87
2022/05/23 05:46:29;;;;;;;5.33;3.47;;;;;;;;;;5066365;28;20405;-86
2022/05/23 05:48:56;;;;;;;5.80;3.40;;;;;;;;;;5067301;28;20436;-86
2022/05/23 05:51:23;;;;;;;5.60;3.10;;;;;;;;;;5066957;28;20406;-85
2022/05/23 05:53:50;;;;;;;4.30;3.50;;;;;;;;;;5066749;28;20408;-87
2022/05/23 05:56:16;;;;;;;8.20;4.20;;;;;;;;;;5065783;28;20405;-87
2022/05/23 05:58:42;;;;;;;5.10;3.30;;;;;;;;;;5066868;28;20452;-86
2022/05/23 06:01:08;;;;;;;6.10;2.93;;;;;;;;;;5048344;28;20968;-85
2022/05/23 06:03:35;;;;;;;6.00;2.93;;;;;;;;;;5066042;28;20431;-84
2022/05/23 06:11:31;;;;;;;5.47;2.90;;;;;;;;;;5077194;28;20413;-84
2022/05/23 06:13:58;;;;;;;4.40;3.00;;;;;;;;;;5076207;28;20452;-88
2022/05/23 06:16:25;;;;;;;4.77;3.27;;;;;;;;;;5067700;28;20421;-87
2022/05/23 06:18:51;;;;;;;4.20;3.00;;;;;;;;;;5054703;28;20460;-89
2022/05/23 06:21:18;;;;;;;7.17;3.43;;;;;;;;;;5038592;28;20398;-87
2022/05/23 06:23:47;;;;;;;5.63;2.80;;;;;;;;;;5037840;28;20421;-87
2022/05/23 06:26:16;;;;;;;9.47;2.70;;;;;;;;;;5039289;28;20410;-88
2022/05/23 06:28:43;;;;;;;7.43;3.23;;;;;;;;;;5038898;28;20426;-88
2022/05/23 06:31:09;;;;;;;8.00;3.03;;;;;;;;;;5049856;28;20402;-84
2022/05/23 06:33:36;;;;;;;6.43;3.50;;;;;;;;;;5019837;28;20449;-88
2022/05/23 06:36:03;;;;;;;3.93;2.93;;;;;;;;;;5039680;28;20441;-88
2022/05/23 06:38:29;;;;;;;6.07;3.20;;;;;;;;;;5049171;28;20415;-88
2022/05/23 06:40:55;;;;;;;4.10;3.13;;;;;;;;;;5042822;28;20878;-87
2022/05/23 06:43:21;;;;;;;7.10;3.17;;;;;;;;;;5042579;28;20509;-87
2022/05/23 06:45:48;;;;;;;5.77;3.70;;;;;;;;;;5041763;28;20775;-85
2022/05/23 06:48:14;;;;;;;5.30;2.93;;;;;;;;;;5024792;28;20462;-84
2022/05/23 06:50:41;;;;;;;4.40;3.63;;;;;;;;;;5042107;28;20426;-87
2022/05/23 06:53:07;;;;;;;4.20;2.90;;;;;;;;;;5040959;28;20428;-88
2022/05/23 06:55:33;;;;;;;4.50;2.97;;;;;;;;;;5041277;28;20546;-88
2022/05/23 06:57:59;;;;;;;10.97;3.40;;;;;;;;;;5042936;28;20787;-86
2022/05/23 07:00:25;;;;;;;6.03;3.87;;;;;;;;;;5042204;28;20437;-87
2022/05/23 07:02:51;;;;;;;8.33;3.73;;;;;;;;;;5043130;28;20986;-87
2022/05/23 07:13:34;;;;;;;8.20;3.53;;;;;;;;;;5052944;28;20422;-86
2022/05/23 07:16:01;;;;;;;5.73;3.30;;;;;;;;;;5047257;28;20976;-87
2022/05/23 07:18:30;;;;;;;12.53;3.80;;;;;;;;;;5051073;28;20429;-85
2022/05/23 07:20:56;;;;;;;8.37;3.77;;;;;;;;;;5038168;28;20418;-87
2022/05/23 07:23:22;;;;;;;5.97;3.67;;;;;;;;;;5043424;28;20854;-87
2022/05/23 07:25:49;;;;;;;5.70;3.30;;;;;;;;;;5052281;28;20500;-88
2022/05/23 07:28:15;;;;;;;6.20;3.93;;;;;;;;;;5057289;28;20489;-85
2022/05/23 07:30:45;;;;;;;6.13;3.60;;;;;;;;;;5063405;28;20435;-85
2022/05/23 07:33:11;;;;;;;6.60;4.20;;;;;;;;;;5044888;28;20740;-86
2022/05/23 07:35:38;;;;;;;7.53;3.93;;;;;;;;;;5040364;28;20550;-82
2022/05/23 07:38:04;;;;;;;6.77;4.00;;;;;;;;;;5022146;28;20415;-86
2022/05/23 07:40:30;;;;;;;9.90;3.60;;;;;;;;;;5038498;28;20461;-87
2022/05/23 07:42:56;;;;;;;7.03;4.10;;;;;;;;;;5020828;28;20412;-86
2022/05/23 07:45:25;;;;;;;5.80;3.87;;;;;;;;;;5040928;28;20433;-87
2022/05/23 07:47:51;;;;;;;9.10;3.57;;;;;;;;;;5021331;28;20410;-86
2022/05/23 07:50:19;;;;;;;8.27;3.77;;;;;;;;;;5037894;28;20815;-85
2022/05/23 08:00:31;;;;;;;3.70;3.13;;;;;;;;;;5032045;28;20420;-87
2022/05/23 08:01:03;;;;;;;4.20;3.13;;;;;;;;;;5040202;28;20382;-88
2022/05/23 08:03:30;;;;;;;13.53;3.37;;;;;;;;;;5018152;28;20418;-85
2022/05/23 08:05:58;;;;;;;6.13;3.27;;;;;;;;;;5057903;28;20502;-86
2022/05/23 08:08:27;;;;;;;9.13;3.90;;;;;;;;;;5037522;28;20793;-86
2022/05/23 08:10:53;;;;;;;5.40;3.90;;;;;;;;;;5046223;28;20471;-87
2022/05/23 08:16:41;;;;;;;7.40;4.00;;;;;;;;;;4998071;28;20467;-82
2022/05/23 08:19:07;;;;;;;6.13;3.50;;;;;;;;;;5035681;28;20419;-87
2022/05/23 08:21:34;;;;;;;6.53;3.60;;;;;;;;;;5042308;28;20711;-84
2022/05/23 08:24:00;;;;;;;7.90;4.43;;;;;;;;;;5029079;28;20423;-86
2022/05/23 08:26:27;;;;;;;8.30;4.23;;;;;;;;;;5050043;28;20473;-88
2022/05/23 08:28:53;;;;;;;5.90;4.07;;;;;;;;;;5031031;28;20799;-85
2022/05/23 08:31:19;;;;;;;6.63;4.27;;;;;;;;;;5036759;28;20870;-87
2022/05/23 08:33:46;;;;;;;8.17;4.00;;;;;;;;;;5037994;28;20772;-85
2022/05/23 08:36:12;;;;;;;8.07;5.13;;;;;;;;;;5035569;28;20410;-86
2022/05/23 08:38:38;;;;;;;5.50;4.30;;;;;;;;;;5043020;28;20460;-85
2022/05/23 08:41:16;;;;;;;6.27;4.03;;;;;;;;;;5042229;28;20427;-86
2022/05/23 08:43:52;;;;;;;6.27;4.90;;;;;;;;;;5045567;28;20437;-86
2022/05/23 08:46:33;;;;;;;7.63;4.27;;;;;;;;;;5032520;28;20393;-85
2022/05/23 08:49:06;;;;;;;7.10;3.63;;;;;;;;;;5044438;28;20488;-85
2022/05/23 08:51:44;;;;;;;6.73;4.90;;;;;;;;;;5016289;28;20500;-86
2022/05/23 08:54:23;;;;;;;12.20;4.80;;;;;;;;;;5046005;28;20479;-85
2022/05/23 08:56:54;;;;;;;6.17;4.80;;;;;;;;;;5046264;28;20424;-85
2022/05/23 08:59:21;;;;;;;6.13;4.83;;;;;;;;;;5052304;28;20422;-83
2022/05/23 09:01:48;;;;;;;11.73;4.83;;;;;;;;;;5035262;28;20866;-85
2022/05/23 09:04:20;;;;;;;7.63;4.10;;;;;;;;;;5023437;28;20414;-84
2022/05/23 09:06:47;;;;;;;6.93;4.17;;;;;;;;;;5037045;28;21000;-85
2022/05/23 09:09:15;;;;;;;6.50;4.27;;;;;;;;;;5028640;28;20817;-86
2022/05/23 09:11:43;;;;;;;7.43;4.30;;;;;;;;;;5036932;28;20513;-85
2022/05/23 09:14:14;;;;;;;10.60;4.30;;;;;;;;;;5033806;28;20916;-84
2022/05/23 09:16:41;;;;;;;4.83;4.10;;;;;;;;;;5047882;28;20479;-88
2022/05/23 09:19:14;;;;;;;10.97;5.00;;;;;;;;;;5043459;28;20434;-85
2022/05/23 09:24:24;;;;;;;10.67;4.30;;;;;;;;;;5050252;28;20481;-87
2022/05/23 09:26:53;;;;;;;6.27;3.70;;;;;;;;;;5051150;28;20409;-85
2022/05/23 09:29:19;;;;;;;9.17;3.33;;;;;;;;;;5023274;28;20438;-87
2022/05/23 09:31:54;;;;;;;5.17;3.27;;;;;;;;;;5053564;28;20840;-84
2022/05/23 09:34:31;;;;;;;5.90;3.57;;;;;;;;;;5066050;28;20428;-86
2022/05/23 09:36:58;;;;;;;6.30;3.40;;;;;;;;;;5042323;28;20430;-86
2022/05/23 09:39:25;;;;;;;7.30;3.87;;;;;;;;;;5039382;28;20484;-86
2022/05/23 09:47:45;;;;;;;5.87;3.17;;;;;;;;;;5057357;28;20473;-83
2022/05/23 09:50:13;;;;;;;7.93;3.53;;;;;;;;;;5045256;28;20422;-87
2022/05/23 09:52:49;;;;;;;6.00;2.50;;;;;;;;;;5039962;28;20407;-87
2022/05/23 09:55:23;;;;;;;6.50;3.20;;;;;;;;;;5041088;28;20449;-85
2022/05/23 09:57:51;;;;;;;5.47;2.67;;;;;;;;;;5040702;28;20390;-87
2022/05/23 10:00:22;;;;;;;4.00;2.57;;;;;;;;;;5030389;28;20423;-84
2022/05/23 10:02:51;;;;;;;5.03;2.90;;;;;;;;;;5044798;28;20441;-87
2022/05/23 10:05:36;;;;;;;6.70;3.17;;;;;;;;;;5045248;28;20172;-83
2022/05/23 10:08:07;;;;;;;7.30;3.70;;;;;;;;;;5046559;28;20418;-86
2022/05/23 10:10:35;;;;;;;7.27;2.70;;;;;;;;;;5045430;28;20418;-85
2022/05/23 10:13:13;;;;;;;5.57;2.80;;;;;;;;;;5049238;28;20894;-85
2022/05/23 10:15:45;;;;;;;6.50;3.47;;;;;;;;;;5048839;28;20446;-87
2022/05/23 10:18:18;;;;;;;4.57;2.57;;;;;;;;;;5049365;28;20409;-84
2022/05/23 10:20:44;;;;;;;9.33;3.13;;;;;;;;;;5012944;28;20884;-85
2022/05/23 10:23:19;;;;;;;6.97;2.90;;;;;;;;;;5027914;28;20454;-86
2022/05/23 10:25:52;;;;;;;5.93;2.87;;;;;;;;;;5027373;28;20416;-86
2022/05/23 10:28:22;;;;;;;6.33;3.40;;;;;;;;;;5035137;28;20418;-86
2022/05/23 10:30:56;;;;;;;9.47;3.40;;;;;;;;;;5048271;28;20391;-84
2022/05/23 10:33:27;;;;;;;6.70;3.20;;;;;;;;;;5049412;28;20486;-85
2022/05/23 10:35:55;;;;;;;7.03;4.13;;;;;;;;;;5048433;28;20457;-84
2022/05/23 10:44:37;;;;;;;7.53;2.80;;;;;;;;;;5045368;28;20433;-85
2022/05/23 10:47:22;;;;;;;7.87;3.83;;;;;;;;;;5046625;28;20439;-86
2022/05/23 10:49:48;;;;;;;5.53;3.10;;;;;;;;;;5027387;28;20435;-86
2022/05/23 10:52:25;;;;;;;6.33;3.00;;;;;;;;;;5026040;28;20408;-86
2022/05/23 10:55:18;;;;;;;11.33;4.97;;;;;;;;;;5010426;28;20505;-87
2022/05/23 10:57:56;;;;;;;10.67;3.10;;;;;;;;;;5026460;28;20434;-84
2022/05/23 11:00:28;;;;;;;5.83;2.77;;;;;;;;;;5026117;28;20468;-85
2022/05/23 11:03:01;;;;;;;5.63;2.97;;;;;;;;;;5026326;28;20384;-86
2022/05/23 11:05:31;;;;;;;10.43;3.47;;;;;;;;;;5026409;28;20390;-86
2022/05/23 11:08:07;;;;;;;7.33;3.17;;;;;;;;;;5028049;28;20872;-86
2022/05/23 11:10:37;;;;;;;6.40;3.00;;;;;;;;;;5009889;28;21017;-85
2022/05/23 11:13:22;;;;;;;10.40;3.23;;;;;;;;;;5028584;28;20399;-85
2022/05/23 11:15:56;;;;;;;7.93;4.27;;;;;;;;;;5028776;28;20467;-86
2022/05/23 11:18:32;;;;;;;8.20;4.60;;;;;;;;;;5026992;28;20410;-85
2022/05/23 11:21:01;;;;;;;8.33;3.10;;;;;;;;;;5009763;28;20934;-86
2022/05/23 11:23:33;;;;;;;5.97;2.93;;;;;;;;;;5030526;28;20456;-88
2022/05/23 11:26:20;;;;;;;5.70;3.03;;;;;;;;;;5044550;28;20430;-87
2022/05/23 11:34:53;;;;;;;10.30;3.70;;;;;;;;;;5029032;28;20546;-85
2022/05/23 11:38:06;;;;;;;6.33;3.10;;;;;;;;;;5027509;28;20430;-85
2022/05/23 11:40:09;;;;;;;4.67;3.20;;;;;;;;;;5038641;28;20957;-87
2022/05/23 11:42:44;;;;;;;5.90;2.90;;;;;;;;;;5042838;28;20417;-86
2022/05/23 11:48:01;;;;;;;11.47;3.40;;;;;;;;;;5045402;28;20418;-86
2022/05/23 11:50:32;;;;;;;7.33;3.43;;;;;;;;;;5035485;28;20457;-87
2022/05/23 11:53:09;;;;;;;6.50;3.60;;;;;;;;;;5059560;28;20458;-85
2022/05/23 11:55:54;;;;;;;9.07;4.17;;;;;;;;;;5070871;28;20437;-86
2022/05/23 11:58:25;;;;;;;6.27;3.30;;;;;;;;;;5008382;28;20426;-86
2022/05/23 12:01:04;;;;;;;5.80;3.23;;;;;;;;;;5024745;28;20403;-85
2022/05/23 12:03:49;;;;;;;8.00;4.10;;;;;;;;;;5009833;28;20419;-84
2022/05/23 12:06:18;;;;;;;6.77;3.10;;;;;;;;;;5023420;28;20434;-84
2022/05/23 12:09:05;;;;;;;9.67;3.27;;;;;;;;;;5028907;28;20452;-85
2022/05/23 12:11:33;;;;;;;9.80;3.60;;;;;;;;;;5045649;28;20394;-84
2022/05/23 12:14:29;;;;;;;8.73;3.20;;;;;;;;;;5027150;28;20402;-85
2022/05/23 12:16:58;;;;;;;9.40;4.27;;;;;;;;;;5009887;28;20425;-85
2022/05/23 12:19:39;;;;;;;10.70;3.97;;;;;;;;;;5045658;28;20765;-87
2022/05/23 12:22:24;;;;;;;7.40;3.00;;;;;;;;;;5045114;28;20410;-85
2022/05/23 12:25:09;;;;;;;9.40;3.43;;;;;;;;;;5045435;28;20410;-83
2022/05/23 12:27:35;;;;;;;4.50;2.63;;;;;;;;;;5051866;28;20402;-84
2022/05/23 12:30:26;;;;;;;8.50;2.90;;;;;;;;;;5052310;28;20469;-83
2022/05/23 12:33:01;;;;;;;7.63;2.87;;;;;;;;;;5051344;28;20418;-83
2022/05/23 12:35:44;;;;;;;12.33;3.90;;;;;;;;;;5037212;28;20552;-85
2022/05/23 12:38:14;;;;;;;10.23;2.73;;;;;;;;;;5007544;28;20442;-85
2022/05/23 12:40:54;;;;;;;14.63;3.90;;;;;;;;;;5024240;28;20506;-84
2022/05/23 12:43:35;;;;;;;7.03;3.20;;;;;;;;;;5025864;28;20422;-84
2022/05/23 12:46:09;;;;;;;10.07;3.30;;;;;;;;;;5036406;28;20497;-84
2022/05/23 12:48:46;;;;;;;9.87;3.70;;;;;;;;;;5040206;28;20402;-82
2022/05/23 12:51:32;;;;;;;6.87;3.50;;;;;;;;;;5040361;28;20406;-86
2022/05/23 12:54:04;;;;;;;5.87;3.20;;;;;;;;;;5023030;28;20827;-83
2022/05/23 12:56:36;;;;;;;5.97;2.80;;;;;;;;;;5041136;28;20417;-85
2022/05/23 12:59:05;;;;;;;5.53;3.37;;;;;;;;;;5050953;28;20422;-85
2022/05/23 13:01:33;;;;;;;6.40;2.70;;;;;;;;;;5056802;28;20434;-83
2022/05/23 13:04:03;;;;;;;5.47;2.83;;;;;;;;;;5044793;28;20407;-86
2022/05/23 13:06:48;;;;;;;5.70;2.90;;;;;;;;;;5044308;28;20422;-88
2022/05/23 13:09:17;;;;;;;7.67;3.43;;;;;;;;;;5043138;28;20429;-87
2022/05/23 13:11:46;;;;;;;7.07;2.97;;;;;;;;;;5042754;28;20497;-87
2022/05/23 13:14:13;;;;;;;6.03;3.50;;;;;;;;;;5045229;28;20454;-86
2022/05/23 13:16:40;;;;;;;7.53;3.10;;;;;;;;;;5043770;28;20407;-87
2022/05/23 13:22:09;;;;;;;9.73;3.20;;;;;;;;;;5041184;28;20445;-86
2022/05/23 13:24:49;;;;;;;7.33;2.60;;;;;;;;;;5040729;28;20402;-85
2022/05/23 13:27:19;;;;;;;10.43;3.30;;;;;;;;;;5042438;28;20390;-87
2022/05/23 13:29:52;;;;;;;8.53;3.00;;;;;;;;;;5041360;28;20445;-87
2022/05/23 13:32:26;;;;;;;7.03;3.40;;;;;;;;;;5039828;28;20403;-86
2022/05/23 13:34:53;;;;;;;10.00;3.77;;;;;;;;;;5042714;28;20469;-88
2022/05/23 13:37:31;;;;;;;12.87;3.53;;;;;;;;;;5044281;28;20816;-86
2022/05/23 13:40:06;;;;;;;7.43;3.53;;;;;;;;;;5041784;28;20454;-87
2022/05/23 13:42:32;;;;;;;7.17;2.80;;;;;;;;;;5042475;28;20385;-87
2022/05/23 13:45:15;;;;;;;7.87;3.37;;;;;;;;;;5042549;28;20410;-87
2022/05/23 13:47:48;;;;;;;8.20;3.70;;;;;;;;;;5039375;28;20482;-87
2022/05/23 13:50:17;;;;;;;9.43;4.00;;;;;;;;;;5024680;28;20427;-87
2022/05/23 13:52:50;;;;;;;9.40;3.37;;;;;;;;;;5007385;28;20411;-84
2022/05/23 13:55:38;;;;;;;7.00;2.90;;;;;;;;;;5023956;28;20543;-85
2022/05/23 13:58:12;;;;;;;13.83;4.27;;;;;;;;;;5008329;28;20419;-87
2022/05/23 14:00:40;;;;;;;5.90;2.67;;;;;;;;;;5006794;28;20433;-86
2022/05/23 14:03:21;;;;;;;13.53;3.37;;;;;;;;;;5024150;28;20407;-87
2022/05/23 14:05:55;;;;;;;6.30;3.10;;;;;;;;;;5006925;28;20454;-87
2022/05/23 14:08:36;;;;;;;4.80;2.43;;;;;;;;;;5006465;28;20414;-85
2022/05/23 14:11:26;;;;;;;9.10;3.10;;;;;;;;;;5026800;23;20529;-82
2022/05/23 14:13:55;;;;;;;11.43;3.30;;;;;;;;;;5030272;28;20437;-85
2022/05/23 14:16:23;;;;;;;8.60;2.47;;;;;;;;;;5023776;28;20434;-83
2022/05/23 14:19:08;;;;;;;7.00;3.00;;;;;;;;;;5022700;28;20422;-82
2022/05/23 14:21:36;;;;;;;7.30;3.40;;;;;;;;;;5003455;28;20404;-82
2022/05/23 14:24:10;;;;;;;12.53;3.50;;;;;;;;;;5003909;28;20436;-82
2022/05/23 14:26:36;;;;;;;9.73;3.30;;;;;;;;;;5002778;28;20404;-81
2022/05/23 14:29:10;;;;;;;6.53;3.63;;;;;;;;;;5004936;28;20411;-83
2022/05/23 14:31:42;;;;;;;6.50;3.30;;;;;;;;;;5004383;28;20426;-83
2022/05/23 14:34:09;;;;;;;11.80;4.37;;;;;;;;;;5004096;28;20415;-82
2022/05/23 14:36:36;;;;;;;9.30;3.70;;;;;;;;;;5003395;28;20415;-82
2022/05/23 14:39:16;;;;;;;7.73;3.20;;;;;;;;;;5004501;28;20400;-83
2022/05/23 14:41:42;;;;;;;11.20;5.53;;;;;;;;;;4994500;28;20412;-83
2022/05/23 14:44:17;;;;;;;9.53;3.10;;;;;;;;;;5003274;28;20411;-85
2022/05/23 14:46:59;;;;;;;13.03;3.80;;;;;;;;;;4997403;28;20912;-83
2022/05/23 14:49:25;;;;;;;11.67;3.60;;;;;;;;;;4983666;28;20487;-83
2022/05/23 14:51:51;;;;;;;7.90;2.87;;;;;;;;;;4984353;28;20775;-83
2022/05/23 14:57:08;;;;;;;6.93;3.13;;;;;;;;;;4994686;28;20408;-83
2022/05/23 15:02:28;;;;;;;5.00;3.27;;;;;;;;;;5007626;28;20392;-82
2022/05/23 15:04:55;;;;;;;7.97;3.60;;;;;;;;;;5010997;28;20404;-80
2022/05/23 15:07:22;;;;;;;10.43;3.63;;;;;;;;;;5017812;28;20401;-80
2022/05/23 15:09:48;;;;;;;9.80;3.97;;;;;;;;;;5018429;28;20458;-82
2022/05/23 15:12:22;;;;;;;5.20;3.00;;;;;;;;;;5018237;28;20438;-80
2022/05/23 15:14:50;;;;;;;9.30;4.00;;;;;;;;;;5017935;28;20487;-79
2022/05/23 15:17:17;;;;;;;8.47;4.70;;;;;;;;;;5012771;28;20488;-80
2022/05/23 15:19:43;;;;;;;17.87;5.20;;;;;;;;;;4987218;28;20460;-81
2022/05/23 15:22:14;;;;;;;7.40;4.40;;;;;;;;;;5004226;28;20424;-82
2022/05/23 15:24:40;;;;;;;12.20;5.60;;;;;;;;;;5012263;28;20461;-79
2022/05/23 15:27:06;;;;;;;6.53;4.03;;;;;;;;;;5013158;28;20400;-82
2022/05/23 15:29:32;;;;;;;6.50;4.80;;;;;;;;;;5010961;28;20447;-81
2022/05/23 15:32:01;;;;;;;9.90;4.83;;;;;;;;;;5005934;28;20519;-83
2022/05/23 15:34:27;;;;;;;9.27;4.27;;;;;;;;;;4996544;28;20455;-82
2022/05/23 15:36:53;;;;;;;7.57;4.60;;;;;;;;;;5007385;28;20419;-82
2022/05/23 15:39:20;;;;;;;9.40;4.47;;;;;;;;;;5004429;28;22222;-83
2022/05/23 15:41:47;;;;;;;7.93;4.30;;;;;;;;;;5002085;28;20434;-82
2022/05/23 15:44:17;;;;;;;8.10;4.50;;;;;;;;;;4994556;28;20420;-84
2022/05/23 15:46:44;;;;;;;8.33;4.47;;;;;;;;;;5004246;28;20427;-83
2022/05/23 15:49:11;;;;;;;7.53;3.80;;;;;;;;;;5004515;28;20492;-82
2022/05/23 15:51:40;;;;;;;9.70;4.80;;;;;;;;;;5003757;28;20432;-83
2022/05/23 15:54:07;;;;;;;8.67;4.80;;;;;;;;;;5002221;28;20420;-83
2022/05/23 15:56:33;;;;;;;12.67;4.73;;;;;;;;;;5002122;28;20428;-82
2022/05/23 15:59:01;;;;;;;6.53;4.17;;;;;;;;;;5002272;28;20400;-82
2022/05/23 16:01:27;;;;;;;8.67;5.07;;;;;;;;;;4999194;28;20753;-81
2022/05/23 16:03:54;;;;;;;8.30;4.50;;;;;;;;;;4993392;28;20415;-82
2022/05/23 16:06:20;;;;;;;8.50;4.90;;;;;;;;;;5002392;28;20592;-83